Time;durP1;ratioP1;P1;durP2;ratioP2;P2;SDS_P1;SDS_P2;PMS_P1;PMS_P2;Temp;Humidity;BMP_temperature;BMP_pressure;BME280_temperature;BME280_humidity;BME280_pressure;Samples;Min_cycle;Max_cycle;Signal;HPM_P1;HPM_P2
2022/04/02 04:45:36;;;;;;;16.65;9.05;;;0.70;99.90;;;;;;5377300;23;12640855;-80
2022/04/02 04:53:15;;;;;;;19.52;10.10;;;0.70;99.90;;;;;;5726045;23;20442;-80
2022/04/02 05:00:56;;;;;;;17.60;9.82;;;0.70;99.90;;;;;;5451035;23;20043;-81
2022/04/02 05:26:47;;;;;;;15.02;8.63;;;0.70;99.90;;;;;;5472951;23;20100;-80
2022/04/02 05:57:48;;;;;;;13.15;8.07;;;0.90;99.90;;;;;;5520020;23;20051;-83
2022/04/02 06:23:36;;;;;;;15.25;9.30;;;1.10;99.90;;;;;;5123005;23;20043;-86
2022/04/02 06:26:03;;;;;;;12.95;8.13;;;1.00;99.90;;;;;;4960690;29;20056;-84
2022/04/02 06:28:31;;;;;;;12.95;8.20;;;1.10;99.90;;;;;;4944902;29;20035;-85
2022/04/02 06:30:58;;;;;;;13.63;8.18;;;1.20;99.90;;;;;;4944754;29;20063;-85
2022/04/02 06:33:26;;;;;;;12.32;7.43;;;1.20;99.90;;;;;;5114362;23;20074;-87
2022/04/02 06:35:55;;;;;;;11.70;7.38;;;1.20;99.90;;;;;;4963043;29;20042;-86
2022/04/02 06:38:23;;;;;;;11.85;7.63;;;1.20;99.90;;;;;;5368333;23;20066;-84
2022/04/02 06:40:57;;;;;;;10.98;7.63;;;1.20;99.90;;;;;;4940416;29;20055;-83
2022/04/02 06:43:25;;;;;;;12.03;7.80;;;1.20;99.90;;;;;;4960233;29;20052;-86
2022/04/02 06:45:57;;;;;;;10.60;7.18;;;1.10;99.90;;;;;;4944185;29;20035;-85
2022/04/02 06:51:06;;;;;;;12.30;7.28;;;1.10;99.90;;;;;;5440270;23;20252;-85
2022/04/02 06:53:34;;;;;;;10.63;7.38;;;1.20;99.90;;;;;;4963711;29;20039;-84
2022/04/02 06:56:04;;;;;;;9.98;6.68;;;1.10;99.90;;;;;;4979177;28;20100;-85
2022/04/02 06:58:35;;;;;;;10.05;7.40;;;1.20;99.90;;;;;;4963464;29;20031;-85
2022/04/02 07:06:13;;;;;;;9.40;6.78;;;1.20;99.90;;;;;;5502510;23;20035;-88
2022/04/02 07:26:56;;;;;;;10.55;7.20;;;1.10;99.90;;;;;;5182355;23;20084;-87
2022/04/02 07:29:27;;;;;;;10.60;6.65;;;1.10;99.90;;;;;;4940571;29;20052;-86
2022/04/02 07:34:30;;;;;;;9.10;6.30;;;1.10;99.90;;;;;;5096011;23;20043;-86
2022/04/02 07:42:22;;;;;;;9.98;6.65;;;0.90;99.90;;;;;;5588205;23;20039;-86
2022/04/02 07:45:03;;;;;;;9.93;6.60;;;1.10;99.90;;;;;;4945431;29;20036;-82
2022/04/02 07:47:33;;;;;;;9.93;6.40;;;1.10;99.90;;;;;;4956973;28;20107;-81
2022/04/02 08:36:52;;;;;;;9.88;6.97;;;1.40;99.90;;;;;;1234697;23;20367;-83
2022/04/02 08:39:27;;;;;;;11.15;6.78;;;1.30;99.90;;;;;;4922000;29;20489;-89
2022/04/02 08:42:53;;;;;;;9.40;6.75;;;1.40;99.90;;;;;;4924520;29;20056;-84
2022/04/02 08:45:29;;;;;;;9.80;6.35;;;1.20;99.90;;;;;;4909085;29;20063;-86
2022/04/02 08:48:26;;;;;;;10.45;6.85;;;1.50;99.90;;;;;;4911118;29;20045;-84
2022/04/02 08:51:16;;;;;;;10.90;7.00;;;1.30;99.90;;;;;;4900790;29;20059;-84
2022/04/02 08:53:59;;;;;;;9.65;6.28;;;1.20;99.90;;;;;;4924684;29;20087;-80
2022/04/02 08:56:30;;;;;;;9.57;7.00;;;1.20;99.90;;;;;;4936168;29;20082;-85
2022/04/02 09:01:59;;;;;;;11.27;6.63;;;1.00;99.90;;;;;;5015912;23;20052;-81
2022/04/02 09:05:17;;;;;;;12.77;8.05;;;1.20;99.90;;;;;;4934998;29;20052;-86
2022/04/02 09:08:20;;;;;;;11.80;7.50;;;1.20;99.90;;;;;;4940164;29;20052;-81
2022/04/02 09:11:24;;;;;;;12.65;7.65;;;1.10;99.90;;;;;;4939043;29;20493;-83
2022/04/02 09:14:20;;;;;;;11.77;7.20;;;1.30;99.90;;;;;;4919852;29;20110;-83
2022/04/02 09:17:11;;;;;;;10.52;6.82;;;1.30;99.90;;;;;;4921733;29;20083;-81
2022/04/02 09:19:52;;;;;;;10.93;7.07;;;1.50;99.90;;;;;;4925224;29;20059;-82
2022/04/02 09:22:34;;;;;;;9.98;6.97;;;1.60;99.90;;;;;;4930364;29;20077;-82
2022/04/02 09:25:59;;;;;;;9.70;6.45;;;1.50;99.90;;;;;;4938849;29;20051;-83
2022/04/02 09:29:09;;;;;;;13.15;7.03;;;1.50;99.90;;;;;;4928029;29;20079;-82
2022/04/02 09:32:18;;;;;;;9.27;6.63;;;1.60;99.90;;;;;;4936989;29;20122;-81
2022/04/02 09:35:38;;;;;;;10.07;6.75;;;1.50;99.90;;;;;;4936607;29;20051;-83
2022/04/02 09:38:59;;;;;;;9.45;6.32;;;1.60;99.90;;;;;;4926774;29;20083;-81
2022/04/02 09:41:42;;;;;;;12.25;6.65;;;1.60;99.90;;;;;;4921020;29;20054;-85
2022/04/02 09:44:41;;;;;;;9.88;6.20;;;1.60;99.90;;;;;;4932848;29;20040;-84
2022/04/02 09:47:21;;;;;;;12.48;6.90;;;1.70;99.90;;;;;;4928855;29;20491;-83
2022/04/02 09:50:09;;;;;;;10.25;6.50;;;1.40;99.90;;;;;;4886454;29;20052;-82
2022/04/02 09:52:38;;;;;;;9.52;6.43;;;1.30;99.90;;;;;;4925951;29;20056;-81
2022/04/02 09:55:13;;;;;;;11.38;6.85;;;1.10;99.90;;;;;;4933172;29;20489;-83
2022/04/02 09:58:16;;;;;;;9.88;6.60;;;1.40;99.90;;;;;;4935435;29;20051;-84
2022/04/02 10:00:53;;;;;;;15.55;9.05;;;1.60;99.90;;;;;;4911508;29;20066;-82
2022/04/02 10:03:34;;;;;;;12.48;7.00;;;1.60;99.90;;;;;;4935613;29;20421;-82
2022/04/02 10:06:27;;;;;;;14.80;7.43;;;1.50;99.90;;;;;;4935655;29;20090;-81
2022/04/02 10:09:09;;;;;;;10.98;7.00;;;1.40;99.90;;;;;;4934977;29;20052;-81
2022/04/02 10:11:43;;;;;;;10.93;7.03;;;1.30;99.90;;;;;;4939903;29;20536;-81
2022/04/02 10:14:11;;;;;;;9.20;6.18;;;1.40;99.90;;;;;;4935424;29;20087;-82
2022/04/02 10:16:41;;;;;;;8.23;6.05;;;1.60;99.90;;;;;;4935128;29;20056;-83
2022/04/02 10:19:10;;;;;;;9.18;6.30;;;1.60;99.90;;;;;;4935522;29;20061;-83
2022/04/02 10:21:40;;;;;;;9.45;6.47;;;1.60;99.90;;;;;;4933938;29;20052;-83
2022/04/02 10:24:23;;;;;;;10.60;6.65;;;1.40;99.90;;;;;;4943207;28;20055;-84
2022/04/02 10:26:53;;;;;;;9.63;6.63;;;1.30;99.90;;;;;;4920638;29;20048;-83
2022/04/02 10:29:59;;;;;;;9.43;6.30;;;1.30;99.90;;;;;;4940391;29;20051;-84
2022/04/02 10:32:53;;;;;;;11.82;6.40;;;1.40;99.90;;;;;;4943941;29;20130;-84
2022/04/02 10:35:21;;;;;;;12.20;8.30;;;1.20;99.90;;;;;;4944562;29;20130;-83
2022/04/02 10:38:08;;;;;;;10.23;6.95;;;1.30;99.90;;;;;;4954915;29;20501;-84
2022/04/02 10:40:43;;;;;;;11.05;6.97;;;1.40;99.90;;;;;;4947829;29;20138;-83
2022/04/02 10:43:25;;;;;;;9.93;7.22;;;1.40;99.90;;;;;;4929127;29;20087;-84
2022/04/02 10:45:52;;;;;;;10.88;7.30;;;1.50;99.90;;;;;;4935736;29;20130;-83
2022/04/02 10:48:29;;;;;;;11.77;7.03;;;1.40;99.90;;;;;;4935410;29;20481;-82
2022/04/02 10:50:57;;;;;;;10.73;7.78;;;1.60;99.90;;;;;;4938786;29;20071;-83
2022/04/02 10:53:25;;;;;;;9.68;7.30;;;1.50;99.90;;;;;;4944990;29;20559;-81
2022/04/02 10:55:59;;;;;;;11.75;7.18;;;1.50;99.90;;;;;;4947914;29;20059;-81
2022/04/02 10:58:28;;;;;;;10.73;7.25;;;1.60;99.90;;;;;;4936797;29;20048;-83
2022/04/02 11:00:57;;;;;;;9.52;7.10;;;1.60;99.90;;;;;;4933149;29;20408;-82
2022/04/02 11:03:36;;;;;;;11.50;7.55;;;1.80;99.90;;;;;;4941676;29;20489;-79
2022/04/02 11:06:04;;;;;;;11.35;7.70;;;1.60;99.90;;;;;;4939918;29;20082;-82
2022/04/02 11:08:32;;;;;;;11.23;7.53;;;1.50;99.90;;;;;;4953145;29;20047;-85
2022/04/02 11:11:00;;;;;;;10.70;7.63;;;1.50;99.90;;;;;;4948288;29;20044;-83
2022/04/02 11:13:32;;;;;;;10.32;7.47;;;1.30;99.90;;;;;;4918546;29;20147;-83
2022/04/02 11:16:00;;;;;;;18.83;9.60;;;1.30;99.90;;;;;;4946819;29;20066;-81
2022/04/02 11:18:28;;;;;;;12.35;8.43;;;1.60;99.90;;;;;;4950140;29;20051;-85
2022/04/02 11:21:04;;;;;;;10.98;7.65;;;1.50;99.90;;;;;;4933626;29;20069;-82
2022/04/02 11:23:47;;;;;;;10.75;7.70;;;1.30;99.90;;;;;;4942646;29;20047;-84
2022/04/02 11:26:20;;;;;;;11.15;7.50;;;1.40;99.90;;;;;;4939098;29;20193;-88
2022/04/02 11:28:53;;;;;;;11.60;7.60;;;1.20;99.90;;;;;;4934315;29;20615;-81
2022/04/02 11:31:28;;;;;;;14.30;8.88;;;1.60;99.90;;;;;;4933582;29;20485;-84
2022/04/02 11:33:59;;;;;;;11.50;7.22;;;1.70;99.90;;;;;;4945450;29;20051;-84
2022/04/02 11:36:44;;;;;;;10.73;7.47;;;1.90;99.90;;;;;;4950693;28;20059;-83
2022/04/02 11:39:16;;;;;;;10.77;7.40;;;1.80;99.90;;;;;;4940976;29;20049;-85
2022/04/02 11:41:44;;;;;;;10.82;7.75;;;2.00;99.90;;;;;;4941587;29;20146;-84
2022/04/02 11:44:14;;;;;;;10.90;7.63;;;2.00;99.90;;;;;;4947617;29;20055;-83
2022/04/02 11:46:54;;;;;;;12.13;8.18;;;2.00;99.90;;;;;;4951130;29;20055;-83
2022/04/02 11:49:29;;;;;;;11.10;7.43;;;1.80;99.90;;;;;;4935597;29;20062;-81
2022/04/02 11:52:05;;;;;;;11.02;7.22;;;1.90;99.90;;;;;;4938245;29;20136;-82
2022/04/02 11:54:33;;;;;;;12.00;7.80;;;2.00;99.90;;;;;;4935055;29;20055;-84
2022/04/02 11:57:09;;;;;;;10.48;7.30;;;2.10;99.90;;;;;;4949905;29;20053;-84
2022/04/02 11:59:36;;;;;;;12.30;7.63;;;2.00;99.90;;;;;;4935005;29;20050;-82
2022/04/02 12:02:05;;;;;;;9.73;7.40;;;1.90;99.90;;;;;;4937895;29;20059;-83
2022/04/02 12:04:35;;;;;;;9.02;6.50;;;2.10;99.90;;;;;;4941608;29;20065;-82
2022/04/02 12:07:09;;;;;;;10.45;7.28;;;2.20;99.90;;;;;;4935901;29;20687;-81
2022/04/02 12:09:51;;;;;;;10.75;6.88;;;2.20;99.90;;;;;;4930544;29;20509;-83
2022/04/02 12:12:24;;;;;;;9.85;7.00;;;2.00;99.90;;;;;;4933416;29;20052;-82
2022/04/02 12:14:58;;;;;;;9.60;7.05;;;1.90;99.90;;;;;;4916296;29;20052;-82
2022/04/02 12:17:32;;;;;;;10.98;7.25;;;1.90;99.90;;;;;;4933308;29;20051;-81
2022/04/02 12:20:01;;;;;;;10.70;7.50;;;2.10;99.90;;;;;;4933213;29;20051;-83
2022/04/02 12:22:31;;;;;;;10.32;7.47;;;2.00;99.90;;;;;;4943840;29;20047;-82
2022/04/02 12:25:00;;;;;;;11.35;8.30;;;1.60;99.90;;;;;;4944899;29;20047;-82
2022/04/02 12:27:31;;;;;;;12.38;7.97;;;1.60;99.90;;;;;;4948159;29;20146;-83
2022/04/02 12:30:01;;;;;;;12.00;8.23;;;1.60;99.90;;;;;;4944409;29;20466;-82
2022/04/02 12:32:34;;;;;;;12.00;8.77;;;1.50;99.90;;;;;;4939057;29;20233;-83
2022/04/02 12:35:06;;;;;;;11.80;8.43;;;1.80;99.90;;;;;;4948926;29;20114;-84
2022/04/02 12:37:41;;;;;;;13.13;8.70;;;1.90;99.90;;;;;;4932674;29;20054;-84
2022/04/02 12:40:21;;;;;;;14.57;9.20;;;1.80;99.90;;;;;;4937697;29;20676;-84
2022/04/02 12:42:50;;;;;;;12.63;8.90;;;1.50;99.90;;;;;;4951737;29;20416;-83
2022/04/02 12:45:19;;;;;;;11.98;8.90;;;1.70;99.90;;;;;;4947226;29;20409;-83
2022/04/02 12:47:59;;;;;;;11.48;8.95;;;2.00;99.90;;;;;;4932286;29;20056;-83
2022/04/02 12:50:30;;;;;;;13.13;9.82;;;1.80;99.90;;;;;;4951011;29;20485;-83
2022/04/02 12:52:57;;;;;;;13.93;9.52;;;1.80;99.90;;;;;;4920190;29;20050;-82
2022/04/02 12:55:27;;;;;;;13.60;9.45;;;1.90;99.90;;;;;;4931865;29;20062;-83
2022/04/02 12:58:07;;;;;;;12.80;9.00;;;1.90;99.90;;;;;;4940512;29;20055;-83
2022/04/02 13:00:37;;;;;;;12.05;9.05;;;1.90;99.90;;;;;;4954665;29;20070;-83
2022/04/02 13:03:06;;;;;;;12.32;9.30;;;2.00;99.90;;;;;;4940657;29;20059;-82
2022/04/02 13:05:45;;;;;;;12.35;8.77;;;2.10;99.90;;;;;;4940633;29;20421;-82
2022/04/02 13:08:28;;;;;;;12.20;9.10;;;2.10;99.90;;;;;;4950648;29;20053;-83
2022/04/02 13:10:57;;;;;;;11.05;8.68;;;2.00;99.90;;;;;;4925354;29;20052;-82
2022/04/02 13:13:38;;;;;;;12.38;9.48;;;1.90;99.90;;;;;;4954543;29;20051;-83
2022/04/02 13:16:07;;;;;;;13.05;9.70;;;1.90;99.90;;;;;;4922748;29;20059;-84
2022/04/02 13:21:24;;;;;;;11.95;9.32;;;1.70;99.90;;;;;;4925199;29;20065;-83
2022/04/02 13:25:03;;;;;;;16.52;11.43;;;1.70;99.90;;;;;;4947984;29;20057;-83
2022/04/02 13:28:10;;;;;;;15.00;9.60;;;1.50;99.90;;;;;;4905175;29;20050;-84
2022/04/02 13:30:39;;;;;;;14.30;9.18;;;1.60;99.90;;;;;;4923057;29;20404;-84
2022/04/02 13:33:57;;;;;;;11.45;8.85;;;1.60;99.90;;;;;;4953326;29;20051;-83
2022/04/02 13:36:46;;;;;;;13.10;9.50;;;1.60;99.90;;;;;;4938259;29;20062;-84
2022/04/02 13:39:17;;;;;;;14.30;9.80;;;1.80;99.90;;;;;;4930699;29;20134;-85
2022/04/02 13:41:44;;;;;;;14.38;9.50;;;1.80;99.90;;;;;;4935472;29;20065;-84
2022/04/02 13:44:20;;;;;;;13.05;9.98;;;1.90;99.90;;;;;;4942437;29;20109;-83
2022/04/02 13:46:52;;;;;;;14.68;10.10;;;1.70;99.90;;;;;;4939236;29;20519;-83
2022/04/02 13:49:29;;;;;;;13.23;9.88;;;1.80;99.90;;;;;;4944739;29;20090;-84
2022/04/02 13:52:00;;;;;;;14.10;10.00;;;1.80;99.90;;;;;;4948250;29;20054;-84
2022/04/02 13:54:31;;;;;;;13.98;10.32;;;1.60;99.90;;;;;;4951876;29;20197;-84
2022/04/02 13:57:06;;;;;;;13.50;10.27;;;1.50;99.90;;;;;;4926446;29;20404;-84
2022/04/02 13:59:39;;;;;;;16.13;10.13;;;1.40;99.90;;;;;;4945649;29;20491;-84
2022/04/02 14:02:07;;;;;;;14.40;10.50;;;1.40;99.90;;;;;;4929760;29;20071;-84
2022/04/02 14:04:37;;;;;;;13.88;10.30;;;1.60;99.90;;;;;;4934531;29;20060;-85
2022/04/02 14:07:08;;;;;;;14.90;10.93;;;1.50;99.90;;;;;;4935062;29;20481;-83
2022/04/02 14:09:38;;;;;;;13.65;10.25;;;1.50;99.90;;;;;;4925522;29;20420;-83
2022/04/02 14:12:10;;;;;;;15.10;11.15;;;1.60;99.90;;;;;;4930007;29;20408;-83
2022/04/02 14:14:55;;;;;;;15.15;10.20;;;1.80;99.90;;;;;;4933742;29;20126;-84
2022/04/02 14:17:29;;;;;;;13.77;10.30;;;1.90;99.90;;;;;;4934703;29;20062;-82
2022/04/02 14:20:06;;;;;;;13.43;10.02;;;1.80;99.90;;;;;;4922970;29;20052;-85
2022/04/02 14:22:52;;;;;;;14.15;10.85;;;1.80;99.90;;;;;;4918189;29;20056;-86
2022/04/02 14:25:42;;;;;;;14.30;10.65;;;1.80;99.90;;;;;;4921633;29;20054;-88
2022/04/02 14:28:31;;;;;;;13.80;10.05;;;1.70;99.90;;;;;;4915140;29;20051;-86
2022/04/02 14:31:34;;;;;;;13.57;10.70;;;1.90;99.90;;;;;;4919553;29;20054;-88
2022/04/02 14:34:53;;;;;;;15.13;10.05;;;1.90;99.90;;;;;;4894042;29;20054;-87
2022/04/02 14:38:31;;;;;;;17.08;11.43;;;1.90;99.90;;;;;;4903898;29;20523;-86
2022/04/02 14:41:27;;;;;;;13.18;9.82;;;2.00;99.90;;;;;;4903661;29;20043;-85
2022/04/02 14:44:48;;;;;;;15.40;10.85;;;1.80;99.90;;;;;;4922206;29;20484;-85
2022/04/02 14:48:12;;;;;;;15.15;10.05;;;1.90;99.90;;;;;;4854257;29;20130;-86
2022/04/02 14:51:42;;;;;;;14.23;10.07;;;2.00;99.90;;;;;;4920701;29;20052;-82
2022/04/02 14:55:19;;;;;;;12.75;9.85;;;1.70;99.90;;;;;;4850426;29;20108;-82
2022/04/02 14:58:47;;;;;;;13.52;10.00;;;1.80;99.90;;;;;;4856919;29;20162;-84
2022/04/02 15:01:56;;;;;;;14.98;10.45;;;1.90;99.90;;;;;;4917469;29;20055;-83
2022/04/02 15:05:17;;;;;;;14.35;10.02;;;2.20;99.90;;;;;;4950619;29;20054;-85
2022/04/02 15:08:38;;;;;;;14.35;10.20;;;2.00;99.90;;;;;;4919769;29;20250;-82
2022/04/02 15:11:12;;;;;;;13.57;9.98;;;1.80;99.90;;;;;;4946890;28;20053;-84
2022/04/02 15:13:53;;;;;;;15.32;10.38;;;1.70;99.90;;;;;;4929426;29;20111;-83
2022/04/02 15:16:29;;;;;;;14.32;10.23;;;1.50;99.90;;;;;;4927829;29;20047;-85
2022/04/02 15:19:15;;;;;;;14.27;10.65;;;1.50;99.90;;;;;;4923016;29;20064;-84
2022/04/02 15:21:44;;;;;;;14.25;10.55;;;1.60;99.90;;;;;;4912864;29;20055;-85
2022/04/02 15:24:17;;;;;;;13.93;9.70;;;1.80;99.90;;;;;;4935485;29;20143;-86
2022/04/02 15:26:51;;;;;;;16.40;10.98;;;1.90;99.90;;;;;;4936163;29;20118;-84
2022/04/02 15:29:32;;;;;;;15.30;11.18;;;1.80;99.90;;;;;;4920210;29;20054;-84
2022/04/02 15:32:03;;;;;;;14.18;10.43;;;1.60;99.90;;;;;;4950801;29;20043;-88
2022/04/02 15:34:35;;;;;;;13.80;9.77;;;1.70;99.90;;;;;;4936041;29;20115;-86
2022/04/02 15:37:06;;;;;;;14.90;10.55;;;1.80;99.90;;;;;;4933094;29;20044;-90
2022/04/02 15:39:36;;;;;;;12.77;9.63;;;1.90;99.90;;;;;;4937353;29;20047;-88
2022/04/02 15:42:25;;;;;;;16.10;11.18;;;1.90;99.90;;;;;;4940189;29;20607;-83
2022/04/02 15:45:04;;;;;;;15.18;10.77;;;1.80;99.90;;;;;;4933956;29;20178;-86
2022/04/02 15:47:45;;;;;;;17.00;11.73;;;1.70;99.90;;;;;;4932810;29;20055;-87
2022/04/02 15:50:16;;;;;;;17.08;11.68;;;1.60;99.90;;;;;;4924095;29;20075;-85
2022/04/02 15:52:46;;;;;;;16.50;11.15;;;1.60;99.90;;;;;;4933268;29;20062;-85
2022/04/02 15:55:23;;;;;;;16.27;11.45;;;1.60;99.90;;;;;;4937860;29;20413;-88
2022/04/02 15:58:25;;;;;;;16.13;11.70;;;1.50;99.90;;;;;;4944784;29;20482;-85
2022/04/02 16:00:55;;;;;;;15.80;11.27;;;1.60;99.90;;;;;;4905651;29;20136;-87
2022/04/02 16:03:52;;;;;;;17.95;12.63;;;1.80;99.90;;;;;;4918801;29;20052;-87
2022/04/02 16:06:40;;;;;;;19.30;12.60;;;1.60;99.90;;;;;;4828889;29;20133;-86
2022/04/02 16:10:09;;;;;;;17.00;11.00;;;1.50;99.90;;;;;;4921256;29;20087;-85
2022/04/02 16:12:39;;;;;;;18.20;11.55;;;1.40;99.90;;;;;;4909064;29;20054;-86
2022/04/02 16:15:40;;;;;;;16.75;12.20;;;1.50;99.90;;;;;;4931797;29;20130;-84
2022/04/02 16:18:28;;;;;;;17.75;12.35;;;1.20;99.90;;;;;;4943153;29;20130;-83
2022/04/02 16:21:18;;;;;;;18.73;13.18;;;1.20;99.90;;;;;;4938008;29;20033;-83
2022/04/02 16:23:51;;;;;;;20.40;13.50;;;1.30;99.90;;;;;;4938579;29;20120;-84
2022/04/02 16:26:19;;;;;;;19.80;12.68;;;1.30;99.90;;;;;;4945941;29;20088;-85
2022/04/02 16:28:47;;;;;;;19.10;13.55;;;1.30;99.90;;;;;;4940685;29;20055;-82
2022/04/02 16:31:15;;;;;;;18.58;13.00;;;1.40;99.90;;;;;;4931260;29;20074;-84
2022/04/02 16:33:57;;;;;;;19.67;13.93;;;1.50;99.90;;;;;;4917400;29;20112;-85
2022/04/02 16:36:24;;;;;;;19.58;13.35;;;1.40;99.90;;;;;;4899330;29;20102;-85
2022/04/02 16:38:58;;;;;;;18.85;13.30;;;1.50;99.90;;;;;;4934275;29;20072;-83
2022/04/02 16:41:41;;;;;;;17.90;12.95;;;1.40;99.90;;;;;;4921537;29;20510;-83
2022/04/02 16:44:25;;;;;;;20.55;13.70;;;1.50;99.90;;;;;;4914348;29;20123;-84
2022/04/02 16:46:56;;;;;;;18.58;13.13;;;1.30;99.90;;;;;;4916125;29;20720;-85
2022/04/02 16:49:25;;;;;;;19.17;12.98;;;1.40;99.90;;;;;;4949371;29;20054;-83
2022/04/02 16:51:52;;;;;;;19.15;13.85;;;1.50;99.90;;;;;;4934328;29;20135;-82
2022/04/02 16:54:19;;;;;;;19.67;13.10;;;1.50;99.90;;;;;;4932740;29;20048;-83
2022/04/02 16:56:47;;;;;;;18.27;13.23;;;1.60;99.90;;;;;;4920730;29;20079;-82
2022/04/02 16:59:14;;;;;;;19.85;14.27;;;1.60;99.90;;;;;;4909416;29;20080;-83
2022/04/02 17:01:44;;;;;;;21.40;14.48;;;1.40;99.90;;;;;;4942347;29;20074;-82
2022/04/02 17:04:21;;;;;;;19.50;13.50;;;1.40;99.90;;;;;;4946428;29;20054;-84
2022/04/02 17:07:03;;;;;;;20.55;14.52;;;1.50;99.90;;;;;;4955363;29;20044;-83
2022/04/02 17:09:31;;;;;;;18.20;13.52;;;1.40;99.90;;;;;;4932682;29;20052;-82
2022/04/02 17:11:59;;;;;;;21.35;14.35;;;1.60;99.90;;;;;;4948922;29;20083;-85
2022/04/02 17:14:35;;;;;;;21.90;14.38;;;1.50;99.90;;;;;;4934215;29;20115;-84
2022/04/02 17:17:04;;;;;;;20.58;14.65;;;1.40;99.90;;;;;;4938315;29;20130;-84
2022/04/02 17:19:34;;;;;;;19.50;13.57;;;1.40;99.90;;;;;;4945088;29;20131;-84
2022/04/02 17:22:07;;;;;;;19.33;13.88;;;1.50;99.90;;;;;;4929744;29;20146;-85
2022/04/02 17:24:36;;;;;;;17.90;12.52;;;1.50;99.90;;;;;;4923710;29;20078;-83
2022/04/02 17:27:24;;;;;;;17.77;12.40;;;1.70;99.90;;;;;;4932268;29;20084;-85
2022/04/02 17:29:53;;;;;;;19.60;13.93;;;1.50;99.90;;;;;;4932533;29;20462;-85
2022/04/02 17:32:22;;;;;;;20.35;13.82;;;1.40;99.90;;;;;;4936602;29;20055;-84
2022/04/02 17:35:06;;;;;;;19.10;13.38;;;1.50;99.90;;;;;;4943948;29;20078;-86
2022/04/02 17:37:38;;;;;;;21.98;14.52;;;1.60;99.90;;;;;;4950554;29;20112;-85
2022/04/02 17:40:10;;;;;;;20.35;13.88;;;1.60;99.90;;;;;;4937429;29;20087;-86
2022/04/02 17:42:42;;;;;;;20.75;13.77;;;1.50;99.90;;;;;;4930237;29;20500;-86
2022/04/02 17:45:26;;;;;;;22.20;14.20;;;1.60;99.90;;;;;;4944370;29;20068;-87
2022/04/02 18:19:02;;;;;;;27.63;18.00;;;1.40;99.90;;;;;;5976447;23;20049;-84
2022/04/02 18:21:30;;;;;;;22.15;15.27;;;1.30;99.90;;;;;;4943718;29;20118;-82
2022/04/02 18:23:57;;;;;;;24.27;16.10;;;1.30;99.90;;;;;;4939685;29;20043;-85
2022/04/02 18:26:27;;;;;;;23.33;15.63;;;1.40;99.90;;;;;;4947166;29;20071;-85
2022/04/02 18:28:54;;;;;;;21.30;14.60;;;1.40;99.90;;;;;;4940592;29;20051;-80
2022/04/02 18:31:22;;;;;;;18.85;13.75;;;1.30;99.90;;;;;;4935763;29;20079;-81
2022/04/02 18:33:50;;;;;;;17.90;12.85;;;1.40;99.90;;;;;;4929907;29;20041;-80
2022/04/02 18:36:18;;;;;;;18.20;13.27;;;1.50;99.90;;;;;;4931391;29;20747;-82
2022/04/02 18:38:48;;;;;;;19.65;14.32;;;1.40;99.90;;;;;;4932376;29;20481;-81
2022/04/02 18:41:16;;;;;;;19.20;13.48;;;1.20;99.90;;;;;;4933714;29;20505;-81
2022/04/02 18:43:44;;;;;;;18.58;13.65;;;1.30;99.90;;;;;;4933713;29;20390;-80
2022/04/02 18:46:12;;;;;;;19.10;13.35;;;1.10;99.90;;;;;;4923915;29;20087;-81
2022/04/02 18:48:39;;;;;;;18.27;13.05;;;1.20;99.90;;;;;;4935208;29;20035;-81
2022/04/02 18:51:06;;;;;;;19.20;14.00;;;1.20;99.90;;;;;;4933676;29;20047;-80
2022/04/02 18:53:34;;;;;;;18.05;12.73;;;1.20;99.90;;;;;;4935626;29;20477;-80
2022/04/02 18:56:01;;;;;;;17.52;12.95;;;1.40;99.90;;;;;;4936327;29;20150;-83
2022/04/02 18:58:29;;;;;;;19.45;13.45;;;1.40;99.90;;;;;;4932555;29;20052;-82
2022/04/02 19:00:57;;;;;;;18.42;12.27;;;1.20;99.90;;;;;;4929316;29;20058;-82
2022/04/02 19:03:24;;;;;;;18.98;12.65;;;1.10;99.90;;;;;;4932356;29;20150;-80
2022/04/02 19:05:53;;;;;;;16.42;11.10;;;1.20;99.90;;;;;;4933923;29;20759;-81
2022/04/02 19:08:20;;;;;;;16.13;11.15;;;1.30;99.90;;;;;;4931979;29;20073;-82
2022/04/02 19:10:49;;;;;;;16.70;10.68;;;1.40;99.90;;;;;;4933982;29;20135;-82
2022/04/02 19:13:17;;;;;;;14.77;9.48;;;1.40;99.90;;;;;;4925185;29;20189;-84
2022/04/02 19:15:44;;;;;;;17.10;11.55;;;1.40;99.90;;;;;;4924188;29;20054;-83
2022/04/02 19:18:12;;;;;;;19.52;12.15;;;1.40;99.90;;;;;;4933405;29;20051;-82
2022/04/02 19:20:39;;;;;;;20.33;12.70;;;1.30;99.90;;;;;;4935111;29;20113;-82
2022/04/02 19:23:07;;;;;;;18.48;11.43;;;1.40;99.90;;;;;;4950248;29;20515;-81
2022/04/02 19:25:34;;;;;;;15.63;10.70;;;1.40;99.90;;;;;;4950945;28;20047;-81
2022/04/02 19:28:03;;;;;;;16.75;11.32;;;1.40;99.90;;;;;;4944800;29;20129;-83
2022/04/02 19:30:30;;;;;;;15.27;10.73;;;1.50;99.90;;;;;;4950186;29;20048;-84
2022/04/02 19:32:57;;;;;;;15.60;11.10;;;1.50;99.90;;;;;;4956208;29;20134;-83
2022/04/02 19:35:25;;;;;;;14.70;10.55;;;1.50;99.90;;;;;;4954469;28;20119;-86
2022/04/02 19:37:52;;;;;;;15.48;11.25;;;1.40;99.90;;;;;;4948555;29;20082;-83
2022/04/02 19:40:20;;;;;;;15.82;10.68;;;1.10;99.90;;;;;;4949029;29;20496;-81
2022/04/02 19:42:47;;;;;;;14.98;9.90;;;1.30;99.90;;;;;;4950586;29;20374;-79
2022/04/02 19:45:18;;;;;;;16.20;11.00;;;1.40;99.90;;;;;;4949735;29;20130;-81
2022/04/02 19:47:46;;;;;;;14.45;10.23;;;1.30;99.90;;;;;;4948517;29;20705;-81
2022/04/02 19:50:13;;;;;;;15.73;10.60;;;1.30;99.90;;;;;;4951616;29;20054;-81
2022/04/02 19:52:44;;;;;;;14.85;10.05;;;1.40;99.90;;;;;;4952140;29;20051;-81
2022/04/02 19:55:11;;;;;;;14.70;9.75;;;1.40;99.90;;;;;;4948772;29;20129;-81
2022/04/02 19:57:40;;;;;;;13.98;10.07;;;1.40;99.90;;;;;;4947827;28;20061;-83
2022/04/02 20:00:10;;;;;;;14.00;10.40;;;1.30;99.90;;;;;;4948774;29;20445;-82
2022/04/02 20:02:39;;;;;;;16.65;10.70;;;1.30;99.90;;;;;;4951428;29;20051;-82
2022/04/02 20:05:08;;;;;;;14.40;10.20;;;1.40;99.90;;;;;;4953512;29;20765;-79
2022/04/02 20:07:35;;;;;;;15.90;10.25;;;1.50;99.90;;;;;;4951991;29;20126;-81
2022/04/02 20:10:04;;;;;;;13.88;10.35;;;1.50;99.90;;;;;;4943093;29;20708;-84
2022/04/02 20:12:32;;;;;;;13.63;9.93;;;1.40;99.90;;;;;;4951329;29;20044;-82
2022/04/02 20:15:00;;;;;;;15.27;11.40;;;1.50;99.90;;;;;;4948295;29;20457;-86
2022/04/02 20:17:27;;;;;;;14.55;10.43;;;1.20;99.90;;;;;;4956650;29;20090;-83
2022/04/02 20:19:58;;;;;;;15.38;10.52;;;1.30;99.90;;;;;;4956309;28;20564;-81
2022/04/02 20:22:26;;;;;;;15.98;10.68;;;1.30;99.90;;;;;;4942593;29;20633;-81
2022/04/02 20:24:53;;;;;;;14.10;10.43;;;1.30;99.90;;;;;;4934912;29;20043;-84
2022/04/02 20:27:20;;;;;;;14.35;10.50;;;1.30;99.90;;;;;;4949619;29;20495;-82
2022/04/02 20:29:48;;;;;;;15.07;10.05;;;1.40;99.90;;;;;;4943917;29;20049;-83
2022/04/02 20:32:16;;;;;;;15.27;10.70;;;1.50;99.90;;;;;;4949172;29;20047;-82
2022/04/02 20:34:44;;;;;;;13.48;9.48;;;1.50;99.90;;;;;;4937718;29;20497;-82
2022/04/02 20:37:15;;;;;;;14.77;10.30;;;1.50;99.90;;;;;;4948165;29;20420;-83
2022/04/02 20:39:43;;;;;;;13.77;10.15;;;1.50;99.90;;;;;;4950745;29;20442;-83
2022/04/02 20:42:10;;;;;;;13.82;10.43;;;1.50;99.90;;;;;;4952593;29;20513;-81
2022/04/02 20:44:37;;;;;;;16.38;11.77;;;1.50;99.90;;;;;;4945049;29;20063;-81
2022/04/02 20:47:05;;;;;;;15.32;10.85;;;1.40;99.90;;;;;;4944907;29;20078;-83
2022/04/02 20:49:32;;;;;;;16.30;11.48;;;1.50;99.90;;;;;;4955621;29;20114;-82
2022/04/02 20:52:01;;;;;;;17.70;12.35;;;1.40;99.90;;;;;;4946509;29;20089;-82
2022/04/02 20:54:30;;;;;;;19.85;13.48;;;1.40;99.90;;;;;;4948149;29;20055;-84
2022/04/02 20:56:57;;;;;;;17.63;12.88;;;1.50;99.90;;;;;;4941737;29;20490;-82
2022/04/02 20:59:27;;;;;;;17.13;11.88;;;1.40;99.90;;;;;;4955626;29;20054;-83
2022/04/02 21:01:54;;;;;;;16.27;11.27;;;1.30;99.90;;;;;;4949389;29;20411;-82
2022/04/02 21:04:30;;;;;;;14.40;10.05;;;1.30;99.90;;;;;;4959196;29;20061;-84
2022/04/02 21:06:57;;;;;;;15.27;10.45;;;1.40;99.90;;;;;;4948185;29;20127;-85
2022/04/02 21:09:25;;;;;;;15.43;10.75;;;1.30;99.90;;;;;;4962147;28;20054;-83
2022/04/02 21:11:56;;;;;;;14.82;10.25;;;1.40;99.90;;;;;;4957135;29;20063;-85
2022/04/02 21:14:24;;;;;;;15.20;10.07;;;1.30;99.90;;;;;;4959809;29;20082;-85
2022/04/02 21:17:14;;;;;;;14.63;10.15;;;1.30;99.90;;;;;;4952052;29;20086;-83
2022/04/02 21:19:41;;;;;;;14.27;9.88;;;1.30;99.90;;;;;;4955475;29;20164;-81
2022/04/02 21:22:19;;;;;;;14.73;10.02;;;1.30;99.90;;;;;;4968692;29;20051;-83
2022/04/02 21:24:46;;;;;;;15.00;10.18;;;1.20;99.90;;;;;;4960910;29;20043;-80
2022/04/02 21:27:19;;;;;;;13.65;9.40;;;1.30;99.90;;;;;;4955766;29;20082;-83
2022/04/02 21:29:46;;;;;;;13.23;9.40;;;1.30;99.90;;;;;;4972560;29;20075;-85
2022/04/02 21:35:36;;;;;;;14.23;9.60;;;1.20;99.90;;;;;;5060689;23;20039;-85
2022/04/02 21:44:34;;;;;;;12.73;8.90;;;1.30;99.90;;;;;;5015590;23;20394;-83
2022/04/02 21:49:55;;;;;;;11.95;8.70;;;1.30;99.90;;;;;;5011198;23;20448;-83
2022/04/02 21:55:46;;;;;;;12.00;8.93;;;1.30;99.90;;;;;;4978437;28;20058;-84